Time;durP1;ratioP1;P1;durP2;ratioP2;P2;SDS_P1;SDS_P2;PMS_P1;PMS_P2;Temp;Humidity;BMP_temperature;BMP_pressure;BME280_temperature;BME280_humidity;BME280_pressure;Samples;Min_cycle;Max_cycle;Signal;HPM_P1;HPM_P2
2021/03/16 00:00:29;;;;;;;50.25;6.35;;;;;;;-143.98;100.00;68091.63;5084114;28;20052;-83
2021/03/16 00:02:56;;;;;;;40.22;6.13;;;;;;;-143.98;100.00;68091.63;5060089;28;20109;-82
2021/03/16 00:05:23;;;;;;;27.52;4.18;;;;;;;-143.98;100.00;68091.63;5076970;28;20084;-82
2021/03/16 00:07:56;;;;;;;34.83;4.95;;;;;;;-143.98;100.00;68091.63;5061080;28;20137;-82
2021/03/16 00:10:27;;;;;;;37.70;6.28;;;;;;;-143.98;100.00;68091.63;5062376;28;20088;-83
2021/03/16 00:12:53;;;;;;;42.90;5.95;;;;;;;-143.98;100.00;68091.63;5060099;28;20108;-83
2021/03/16 00:15:22;;;;;;;31.67;5.90;;;;;;;-143.98;100.00;68091.63;5076620;28;20502;-83
2021/03/16 00:17:55;;;;;;;33.72;5.53;;;;;;;-143.98;100.00;68091.63;5059696;28;20044;-83
2021/03/16 00:20:25;;;;;;;45.63;6.68;;;;;;;-143.98;100.00;68091.63;5076118;28;20052;-83
2021/03/16 00:22:51;;;;;;;39.70;6.05;;;;;;;-143.98;100.00;68091.63;5076045;28;20067;-82
2021/03/16 00:25:20;;;;;;;39.60;5.78;;;;;;;-143.98;100.00;68091.63;5077003;28;20064;-82
2021/03/16 00:27:51;;;;;;;43.75;6.60;;;;;;;-143.98;100.00;68091.63;5062790;28;20114;-81
2021/03/16 00:30:26;;;;;;;52.13;6.55;;;;;;;-143.98;100.00;68091.63;5087249;28;20037;-83
2021/03/16 00:32:53;;;;;;;39.97;5.43;;;;;;;-143.98;100.00;68091.63;5091690;28;20047;-82
2021/03/16 00:35:30;;;;;;;49.90;5.68;;;;;;;-143.98;100.00;68091.63;5076594;28;20066;-82
2021/03/16 00:37:59;;;;;;;41.67;5.88;;;;;;;-143.98;100.00;68091.63;5089297;28;20376;-82
2021/03/16 00:40:25;;;;;;;39.50;5.22;;;;;;;-143.98;100.00;68091.63;5061679;28;20054;-81
2021/03/16 00:42:53;;;;;;;48.38;5.72;;;;;;;-143.98;100.00;68091.63;5067928;28;20052;-81
2021/03/16 00:45:23;;;;;;;31.23;4.78;;;;;;;-143.98;100.00;68091.63;5087240;28;20052;-82
2021/03/16 00:47:49;;;;;;;35.67;5.65;;;;;;;-143.98;100.00;68091.63;5078500;28;20045;-83
2021/03/16 00:50:16;;;;;;;41.75;5.72;;;;;;;-143.98;100.00;68091.63;5061329;28;20558;-82
2021/03/16 00:52:42;;;;;;;44.55;6.05;;;;;;;-143.98;100.00;68091.63;5058372;28;20114;-80
2021/03/16 00:55:09;;;;;;;35.05;5.05;;;;;;;-143.98;100.00;68091.63;5058862;28;20060;-80
2021/03/16 00:57:47;;;;;;;40.33;6.03;;;;;;;-143.98;100.00;68091.63;5057134;28;20123;-80
2021/03/16 01:00:14;;;;;;;39.03;6.43;;;;;;;-143.98;100.00;68091.63;5056636;28;20048;-80
2021/03/16 01:02:40;;;;;;;43.92;5.43;;;;;;;-143.98;100.00;68091.63;5057346;28;20053;-83
2021/03/16 01:05:09;;;;;;;57.40;5.38;;;;;;;-143.98;100.00;68091.63;5059077;28;20134;-83
2021/03/16 01:07:37;;;;;;;45.38;6.32;;;;;;;-143.98;100.00;68091.63;5077581;28;20044;-83
2021/03/16 01:10:15;;;;;;;61.25;7.22;;;;;;;-143.98;100.00;68091.63;5076739;28;20060;-83
2021/03/16 01:12:43;;;;;;;42.92;5.53;;;;;;;-143.98;100.00;68091.63;5059838;28;20052;-83
2021/03/16 01:15:10;;;;;;;43.60;5.18;;;;;;;-143.98;100.00;68091.63;5075859;28;20319;-83
2021/03/16 01:17:36;;;;;;;41.15;6.45;;;;;;;-143.98;100.00;68091.63;5075268;28;20124;-83
2021/03/16 01:20:19;;;;;;;59.90;8.32;;;;;;;-143.98;100.00;68091.63;5075431;28;20339;-83
2021/03/16 01:22:49;;;;;;;55.90;7.97;;;;;;;-143.98;100.00;68091.63;5059720;28;20229;-83
2021/03/16 01:25:18;;;;;;;86.32;8.02;;;;;;;-143.98;100.00;68091.63;5074627;28;20052;-83
2021/03/16 01:27:45;;;;;;;48.30;6.05;;;;;;;-143.98;100.00;68091.63;5075081;28;20154;-84
2021/03/16 01:30:15;;;;;;;48.80;6.53;;;;;;;-143.98;100.00;68091.63;5073890;28;20082;-83
2021/03/16 01:32:51;;;;;;;46.03;6.40;;;;;;;-143.98;100.00;68091.63;5060045;28;20103;-82
2021/03/16 01:35:22;;;;;;;41.90;6.55;;;;;;;-143.98;100.00;68091.63;5058785;28;20059;-83
2021/03/16 01:37:56;;;;;;;47.38;7.95;;;;;;;-143.98;100.00;68091.63;5075916;28;20049;-83
2021/03/16 01:40:50;;;;;;;58.40;6.72;;;;;;;-143.98;100.00;68091.63;5058329;28;20199;-84
2021/03/16 01:43:19;;;;;;;70.63;8.75;;;;;;;-143.98;100.00;68091.63;5051031;28;20049;-84
2021/03/16 01:45:48;;;;;;;77.90;8.88;;;;;;;-143.98;100.00;68091.63;5057530;28;20064;-84
2021/03/16 01:48:19;;;;;;;31.67;6.28;;;;;;;-143.98;100.00;68091.63;5058425;28;20052;-83
2021/03/16 01:50:46;;;;;;;41.10;6.15;;;;;;;-143.98;100.00;68091.63;5056826;28;20052;-84
2021/03/16 01:53:12;;;;;;;58.80;7.95;;;;;;;-143.98;100.00;68091.63;5057796;28;20056;-84
2021/03/16 01:55:42;;;;;;;71.47;10.48;;;;;;;-143.98;100.00;68091.63;5074796;28;20083;-84
2021/03/16 01:58:11;;;;;;;47.40;7.22;;;;;;;-143.98;100.00;68091.63;5057338;28;20139;-83
2021/03/16 02:00:43;;;;;;;55.05;7.57;;;;;;;-143.98;100.00;68091.63;5072775;28;20048;-84
2021/03/16 02:03:11;;;;;;;51.20;6.25;;;;;;;-143.98;100.00;68091.63;5073382;28;20135;-83
2021/03/16 02:05:44;;;;;;;48.58;6.60;;;;;;;-143.98;100.00;68091.63;5057044;28;20305;-84
2021/03/16 02:08:50;;;;;;;65.00;7.50;;;;;;;-143.98;100.00;68091.63;5072651;28;20309;-82
2021/03/16 02:11:31;;;;;;;44.42;6.38;;;;;;;-143.98;100.00;68091.63;5075480;28;20056;-83
2021/03/16 02:14:07;;;;;;;41.53;5.70;;;;;;;-143.98;100.00;68091.63;5061691;28;20155;-83
2021/03/16 02:16:36;;;;;;;49.25;6.50;;;;;;;-143.98;100.00;68091.63;5078227;28;20413;-82
2021/03/16 02:19:09;;;;;;;53.05;8.05;;;;;;;-143.98;100.00;68091.63;5078843;28;20086;-83
2021/03/16 02:21:36;;;;;;;46.67;7.32;;;;;;;-143.98;100.00;68091.63;5076336;28;20049;-82
2021/03/16 02:24:05;;;;;;;51.03;8.82;;;;;;;-143.98;100.00;68091.63;5077037;28;20125;-83
2021/03/16 02:29:42;;;;;;;50.25;7.55;;;;;;;;;;5144430;27;20545;-83
2021/03/16 02:32:15;;;;;;;42.47;7.60;;;;;;;;;;5146606;27;20047;-83
2021/03/16 02:34:41;;;;;;;41.00;6.28;;;;;;;;;;5145309;27;20051;-83
2021/03/16 02:37:09;;;;;;;40.75;6.43;;;;;;;;;;5143207;27;20216;-83
2021/03/16 02:39:36;;;;;;;42.92;6.35;;;;;;;;;;5136735;27;20051;-83
2021/03/16 02:42:07;;;;;;;39.15;6.10;;;;;;;;;;5134683;27;20053;-83
2021/03/16 02:44:34;;;;;;;41.83;8.45;;;;;;;;;;5134431;27;20048;-83
2021/03/16 02:47:01;;;;;;;48.05;7.13;;;;;;;;;;5134098;27;20096;-82
2021/03/16 02:49:28;;;;;;;41.63;7.20;;;;;;;;;;5134753;27;20047;-83
2021/03/16 02:51:55;;;;;;;49.28;8.68;;;;;;;;;;5131182;27;20075;-82
2021/03/16 02:54:21;;;;;;;38.28;8.30;;;;;;;;;;5134037;27;20051;-83
2021/03/16 02:57:07;;;;;;;39.17;8.15;;;;;;;;;;5133768;27;20383;-82
2021/03/16 02:59:35;;;;;;;51.03;11.40;;;;;;;;;;5133477;27;20314;-83
2021/03/16 03:02:04;;;;;;;44.90;9.50;;;;;;;;;;5133863;27;20375;-82
2021/03/16 03:04:32;;;;;;;35.13;9.63;;;;;;;;;;5135299;27;20086;-82
2021/03/16 03:06:59;;;;;;;38.67;10.13;;;;;;;;;;5134372;27;20047;-82
2021/03/16 03:09:26;;;;;;;57.60;12.15;;;;;;;;;;5133991;27;20070;-83
2021/03/16 03:11:55;;;;;;;52.08;10.77;;;;;;;;;;5132945;27;20416;-83
2021/03/16 03:14:21;;;;;;;46.38;9.55;;;;;;;;;;5133556;27;20043;-83
2021/03/16 03:16:50;;;;;;;57.22;9.90;;;;;;;;;;5133157;27;20422;-82
2021/03/16 03:19:21;;;;;;;46.38;8.15;;;;;;;;;;5134753;27;20111;-83
2021/03/16 03:21:54;;;;;;;41.33;7.78;;;;;;;;;;5134487;27;20066;-83
2021/03/16 03:24:22;;;;;;;41.92;7.18;;;;;;;;;;5133607;27;20077;-83
2021/03/16 03:26:52;;;;;;;31.42;6.63;;;;;;;;;;5134354;27;20107;-83
2021/03/16 03:29:21;;;;;;;44.60;9.63;;;;;;;;;;5134346;27;20059;-83
2021/03/16 03:31:47;;;;;;;41.35;7.32;;;;;;;;;;5135671;27;20073;-83
2021/03/16 03:34:18;;;;;;;40.60;7.80;;;;;;;;;;5147317;27;20031;-83
2021/03/16 03:36:53;;;;;;;33.80;6.95;;;;;;;;;;5148009;27;20039;-83
2021/03/16 03:39:22;;;;;;;48.78;7.82;;;;;;;;;;5127592;27;20419;-83
2021/03/16 03:41:55;;;;;;;36.42;8.13;;;;;;;;;;5120217;28;20397;-83
2021/03/16 03:44:22;;;;;;;39.05;7.50;;;;;;;;;;5119089;28;20069;-83
2021/03/16 03:46:49;;;;;;;34.70;7.15;;;;;;;;;;5118200;28;20055;-83
2021/03/16 03:49:16;;;;;;;33.58;5.95;;;;;;;;;;5120513;27;20503;-84
2021/03/16 03:51:57;;;;;;;36.63;7.35;;;;;;;;;;5121332;28;20051;-83
2021/03/16 03:54:23;;;;;;;33.42;7.45;;;;;;;;;;5123237;28;20048;-83
2021/03/16 03:56:51;;;;;;;47.38;7.82;;;;;;;;;;5123142;28;20051;-84
2021/03/16 03:59:18;;;;;;;30.35;6.30;;;;;;;;;;5122484;27;20289;-84
2021/03/16 04:01:50;;;;;;;34.17;5.78;;;;;;;;;;5122707;28;20049;-83
2021/03/16 04:04:19;;;;;;;29.23;6.00;;;;;;;;;;5121902;28;20066;-84
2021/03/16 04:06:46;;;;;;;39.72;7.68;;;;;;;;;;5132120;28;20058;-83
2021/03/16 04:09:16;;;;;;;33.33;5.88;;;;;;;;;;5135994;28;20099;-83
2021/03/16 04:11:43;;;;;;;33.30;5.32;;;;;;;;;;5133037;28;20046;-81
2021/03/16 04:14:11;;;;;;;31.80;4.35;;;;;;;;;;5132561;28;20043;-81
2021/03/16 04:16:37;;;;;;;43.92;5.13;;;;;;;;;;5131845;28;20071;-82
2021/03/16 04:19:03;;;;;;;36.55;4.55;;;;;;;;;;5128352;28;20035;-82
2021/03/16 04:21:33;;;;;;;40.60;5.25;;;;;;;;;;5133195;28;20123;-82
2021/03/16 04:24:01;;;;;;;34.30;5.40;;;;;;;;;;5123938;28;20043;-82
2021/03/16 04:26:30;;;;;;;39.15;4.60;;;;;;;;;;5118581;28;20096;-82
2021/03/16 04:28:56;;;;;;;24.63;4.60;;;;;;;;;;5117089;28;20058;-82
2021/03/16 04:31:22;;;;;;;30.75;5.40;;;;;;;;;;5119590;28;20058;-82
2021/03/16 04:33:48;;;;;;;39.00;5.10;;;;;;;;;;5119042;28;20394;-83
2021/03/16 04:36:17;;;;;;;44.47;6.50;;;;;;;;;;5117779;28;20058;-82
2021/03/16 04:38:44;;;;;;;36.83;4.90;;;;;;;;;;5119074;28;20062;-83
2021/03/16 04:41:10;;;;;;;54.53;5.47;;;;;;;;;;5117215;28;20297;-83
2021/03/16 04:43:42;;;;;;;37.72;5.82;;;;;;;;;;5150734;27;20052;-82
2021/03/16 04:46:13;;;;;;;35.13;5.20;;;;;;;;;;5116699;28;20052;-82
2021/03/16 04:48:45;;;;;;;35.70;5.20;;;;;;;;;;5146784;27;20108;-83
2021/03/16 04:51:14;;;;;;;32.50;4.40;;;;;;;;;;5146356;27;20083;-81
2021/03/16 04:53:40;;;;;;;34.58;4.68;;;;;;;;;;5113301;28;20130;-81
2021/03/16 04:56:07;;;;;;;40.03;6.60;;;;;;;;;;5146844;27;20050;-83
2021/03/16 04:58:37;;;;;;;36.10;4.63;;;;;;;;;;5112915;28;20389;-83
2021/03/16 05:01:08;;;;;;;34.88;4.43;;;;;;;;;;5113711;28;20047;-82
2021/03/16 05:03:37;;;;;;;32.65;3.72;;;;;;;;;;5110587;28;20354;-82
2021/03/16 05:06:03;;;;;;;31.58;6.13;;;;;;;;;;5113767;28;20119;-82
2021/03/16 05:08:29;;;;;;;32.33;4.07;;;;;;;;;;5114126;28;20116;-82
2021/03/16 05:10:55;;;;;;;40.65;7.00;;;;;;;;;;5113579;28;20411;-82
2021/03/16 05:13:22;;;;;;;19.02;3.22;;;;;;;;;;5113133;28;20039;-82
2021/03/16 05:15:50;;;;;;;30.15;4.60;;;;;;;;;;5113683;28;20046;-83
2021/03/16 05:18:19;;;;;;;25.45;3.70;;;;;;;;;;5113533;28;20066;-83
2021/03/16 05:20:51;;;;;;;35.70;5.55;;;;;;;;;;5113108;28;20411;-82
2021/03/16 05:23:20;;;;;;;30.15;4.03;;;;;;;;;;5114220;28;20051;-82
2021/03/16 05:25:49;;;;;;;28.40;3.42;;;;;;;;;;5113383;28;20058;-83
2021/03/16 05:28:15;;;;;;;27.70;3.45;;;;;;;;;;5113908;28;20047;-83
2021/03/16 05:30:42;;;;;;;25.13;2.95;;;;;;;;;;5114126;28;20396;-83
2021/03/16 05:33:13;;;;;;;36.75;4.30;;;;;;;;;;5113421;28;20104;-83
2021/03/16 05:35:42;;;;;;;26.50;3.53;;;;;;;;;;5113017;28;20142;-83
2021/03/16 05:38:10;;;;;;;22.25;3.33;;;;;;;;;;5112495;28;20138;-83
2021/03/16 05:40:37;;;;;;;34.90;4.82;;;;;;;;;;5110871;28;20066;-83
2021/03/16 05:43:06;;;;;;;24.40;3.63;;;;;;;;;;5112768;28;20382;-83
2021/03/16 05:45:32;;;;;;;31.33;3.83;;;;;;;;;;5112392;28;20067;-84
2021/03/16 05:47:58;;;;;;;32.47;5.07;;;;;;;;;;5108120;28;20440;-84
2021/03/16 05:50:25;;;;;;;29.38;5.75;;;;;;;;;;5090234;28;20423;-84
2021/03/16 05:52:55;;;;;;;27.67;4.68;;;;;;;;;;5090578;28;20420;-85
2021/03/16 05:55:25;;;;;;;20.83;3.33;;;;;;;;;;5089537;28;20055;-83
2021/03/16 05:57:54;;;;;;;26.33;3.55;;;;;;;;;;5092064;28;20044;-82
2021/03/16 06:00:20;;;;;;;25.35;3.13;;;;;;;;;;5090093;28;20280;-81
2021/03/16 06:02:52;;;;;;;21.00;2.85;;;;;;;;;;5093644;28;20054;-82
2021/03/16 06:05:18;;;;;;;24.20;3.67;;;;;;;;;;5093363;28;20403;-82
2021/03/16 06:07:48;;;;;;;17.95;3.33;;;;;;;;;;5093054;28;20058;-83
2021/03/16 06:10:24;;;;;;;16.55;4.03;;;;;;;;;;5093180;28;20048;-82
2021/03/16 06:13:09;;;;;;;16.95;3.47;;;;;;;;;;5091496;28;20438;-83
2021/03/16 06:15:37;;;;;;;27.70;3.20;;;;;;;;;;5089823;28;20044;-83
2021/03/16 06:18:09;;;;;;;17.88;2.85;;;;;;;;;;5089960;28;20048;-82
2021/03/16 06:20:37;;;;;;;22.45;3.38;;;;;;;;;;5091019;28;20083;-82
2021/03/16 06:23:13;;;;;;;15.98;3.08;;;;;;;;;;5091140;28;20047;-82
2021/03/16 06:25:40;;;;;;;23.45;3.15;;;;;;;;;;5092731;28;20044;-81
2021/03/16 06:28:08;;;;;;;12.93;2.45;;;;;;;;;;5089685;28;20206;-84
2021/03/16 06:30:37;;;;;;;15.23;2.10;;;;;;;;;;5093786;28;20059;-84
2021/03/16 06:33:15;;;;;;;12.20;2.08;;;;;;;;;;5098603;28;20086;-83
2021/03/16 06:35:55;;;;;;;13.27;2.28;;;;;;;;;;5104629;28;20048;-83
2021/03/16 06:38:21;;;;;;;17.23;2.08;;;;;;;;;;5096653;28;20048;-83
2021/03/16 06:40:47;;;;;;;20.85;2.72;;;;;;;;;;5093712;28;20117;-83
2021/03/16 06:43:22;;;;;;;19.20;3.00;;;;;;;;;;5090332;28;20245;-83
2021/03/16 06:45:50;;;;;;;14.25;2.53;;;;;;;;;;5088954;28;20225;-84
2021/03/16 06:48:17;;;;;;;12.88;1.92;;;;;;;;;;5088534;28;20312;-83
2021/03/16 06:50:44;;;;;;;17.63;3.13;;;;;;;;;;5108513;28;20078;-83
2021/03/16 06:53:16;;;;;;;9.18;1.65;;;;;;;;;;5113365;28;20048;-83
2021/03/16 06:55:51;;;;;;;19.77;2.10;;;;;;;;;;5110235;28;20048;-84
2021/03/16 06:58:22;;;;;;;18.52;2.50;;;;;;;;;;5110808;28;20337;-83
2021/03/16 07:00:48;;;;;;;11.80;2.08;;;;;;;;;;5109327;28;20047;-82
2021/03/16 07:03:17;;;;;;;10.35;2.17;;;;;;;;;;5111215;28;20472;-83
2021/03/16 07:05:44;;;;;;;17.38;2.17;;;;;;;;;;5112155;28;20131;-83
2021/03/16 07:08:12;;;;;;;20.33;1.98;;;;;;;;;;5119025;28;20101;-83
2021/03/16 07:10:39;;;;;;;12.43;1.80;;;;;;;;;;5118709;28;20112;-84
2021/03/16 07:13:06;;;;;;;9.90;1.73;;;;;;;;;;5116779;28;20052;-82
2021/03/16 07:15:34;;;;;;;14.60;2.17;;;;;;;;;;5115894;28;20177;-84
2021/03/16 07:18:03;;;;;;;20.73;2.00;;;;;;;;;;5114885;28;20058;-82
2021/03/16 07:20:33;;;;;;;13.52;1.85;;;;;;;;;;5112030;28;20071;-83
2021/03/16 07:23:02;;;;;;;11.30;2.05;;;;;;;;;;5112948;28;20059;-83
2021/03/16 07:25:29;;;;;;;13.63;2.05;;;;;;;;;;5110389;28;20247;-83
2021/03/16 07:27:57;;;;;;;11.15;2.00;;;;;;;;;;5111094;28;20147;-83
2021/03/16 07:30:34;;;;;;;15.32;2.10;;;;;;;;;;5110186;28;20164;-83
2021/03/16 07:33:03;;;;;;;11.52;2.45;;;;;;;;;;5112001;28;20400;-83
2021/03/16 07:35:33;;;;;;;20.13;2.42;;;;;;;;;;5110982;28;20051;-84
2021/03/16 07:38:00;;;;;;;18.13;2.50;;;;;;;;;;5110281;27;20328;-84
2021/03/16 07:40:26;;;;;;;17.58;2.05;;;;;;;;;;5116287;27;20044;-83
2021/03/16 07:42:56;;;;;;;13.63;1.95;;;;;;;;;;5108424;28;20050;-83
2021/03/16 07:45:25;;;;;;;15.05;2.00;;;;;;;;;;5110071;28;20222;-83
2021/03/16 07:47:54;;;;;;;12.77;2.72;;;;;;;;;;5089938;28;20044;-83
2021/03/16 07:50:29;;;;;;;14.68;2.20;;;;;;;;;;5101901;28;20059;-84
2021/03/16 07:53:02;;;;;;;10.20;1.88;;;;;;;;;;5117267;28;20051;-83
2021/03/16 07:55:29;;;;;;;23.02;2.45;;;;;;;;;;5124285;28;20055;-83
2021/03/16 07:58:15;;;;;;;8.07;1.83;;;;;;;;;;5117427;28;20062;-83
2021/03/16 08:01:14;;;;;;;19.23;1.77;;;;;;;;;;5108358;27;20416;-83
2021/03/16 08:03:41;;;;;;;13.07;3.13;;;;;;;;;;5109603;28;20348;-84
2021/03/16 08:06:29;;;;;;;10.02;1.77;;;;;;;;;;5111681;28;20048;-82
2021/03/16 08:08:59;;;;;;;9.07;1.73;;;;;;;;;;5108305;28;20124;-83
2021/03/16 08:11:41;;;;;;;18.50;2.38;;;;;;;;;;5102846;28;20044;-83
2021/03/16 08:14:09;;;;;;;12.60;2.90;;;;;;;;;;5110320;28;20515;-83
2021/03/16 08:16:46;;;;;;;15.32;2.28;;;;;;;;;;5118338;28;20233;-84
2021/03/16 08:19:12;;;;;;;16.15;1.98;;;;;;;;;;5124910;28;20036;-84
2021/03/16 08:21:44;;;;;;;15.10;2.00;;;;;;;;;;5124133;28;20120;-84
2021/03/16 08:24:14;;;;;;;15.82;2.38;;;;;;;;;;5124476;28;20119;-83
2021/03/16 08:26:43;;;;;;;16.20;2.85;;;;;;;;;;5115099;28;20411;-83
2021/03/16 08:29:09;;;;;;;16.90;2.35;;;;;;;;;;5124021;28;20208;-82
2021/03/16 08:31:42;;;;;;;24.13;2.47;;;;;;;;;;5121819;28;20105;-82
2021/03/16 08:34:11;;;;;;;17.00;2.90;;;;;;;;;;5116108;28;20378;-83
2021/03/16 08:36:43;;;;;;;26.42;2.72;;;;;;;;;;5111004;28;20077;-84
2021/03/16 08:39:18;;;;;;;15.30;2.45;;;;;;;;;;5110738;28;20116;-84
2021/03/16 08:41:51;;;;;;;13.95;2.58;;;;;;;;;;5110051;27;20074;-83
2021/03/16 08:44:17;;;;;;;18.33;2.50;;;;;;;;;;5109878;28;20173;-83
2021/03/16 08:46:47;;;;;;;18.73;2.65;;;;;;;;;;5104456;28;20105;-83
2021/03/16 08:49:17;;;;;;;15.43;2.03;;;;;;;;;;5109727;28;20058;-84
2021/03/16 08:51:43;;;;;;;19.38;2.63;;;;;;;;;;5107116;28;20055;-83
2021/03/16 08:54:09;;;;;;;12.63;2.90;;;;;;;;;;5099304;27;20396;-84
2021/03/16 08:56:39;;;;;;;17.55;2.50;;;;;;;;;;5130917;27;20161;-82
2021/03/16 08:59:21;;;;;;;10.52;2.25;;;;;;;;;;5090003;28;20048;-82
2021/03/16 09:01:51;;;;;;;17.95;2.90;;;;;;;;;;5092324;27;20101;-84
2021/03/16 09:04:21;;;;;;;19.02;3.00;;;;;;;;;;5107021;28;20082;-83
2021/03/16 09:06:53;;;;;;;16.67;2.75;;;;;;;;;;5093636;28;20073;-83
2021/03/16 09:09:24;;;;;;;14.60;2.42;;;;;;;;;;5109094;28;20120;-84
2021/03/16 09:11:59;;;;;;;23.67;5.97;;;;;;;;;;5113542;28;20108;-83
2021/03/16 09:14:25;;;;;;;19.42;3.13;;;;;;;;;;5113280;28;20077;-84
2021/03/16 09:16:54;;;;;;;13.95;2.60;;;;;;;;;;5112055;27;20055;-84
2021/03/16 09:19:22;;;;;;;16.65;2.97;;;;;;;;;;5110695;28;20071;-83
2021/03/16 09:21:51;;;;;;;16.20;2.90;;;;;;;;;;5117571;27;20097;-84
2021/03/16 09:24:26;;;;;;;17.52;2.85;;;;;;;;;;5116076;27;20051;-82
2021/03/16 09:27:04;;;;;;;19.00;3.92;;;;;;;;;;5115936;28;20051;-84
2021/03/16 09:29:34;;;;;;;28.13;4.50;;;;;;;;;;5102538;28;20340;-83
2021/03/16 09:32:20;;;;;;;25.13;4.38;;;;;;;;;;5118253;28;20032;-83
2021/03/16 09:34:46;;;;;;;31.75;4.85;;;;;;;;;;5124766;28;20247;-83
2021/03/16 09:37:14;;;;;;;27.08;6.53;;;;;;;;;;5108276;28;20059;-83
2021/03/16 09:39:59;;;;;;;25.55;5.93;;;;;;;;;;5108243;28;20170;-84
2021/03/16 09:42:33;;;;;;;20.63;6.03;;;;;;;;;;5104713;28;20404;-83
2021/03/16 09:45:02;;;;;;;34.35;11.32;;;;;;;;;;5107286;28;20097;-83
2021/03/16 09:47:36;;;;;;;31.83;5.03;;;;;;;;;;5110558;28;20146;-83
2021/03/16 09:50:04;;;;;;;22.17;3.90;;;;;;;;;;5101953;28;20046;-84
2021/03/16 09:52:30;;;;;;;11.48;2.80;;;;;;;;;;5090344;28;20360;-83
2021/03/16 09:55:06;;;;;;;24.65;4.60;;;;;;;;;;5088513;28;20040;-83
2021/03/16 09:57:33;;;;;;;25.33;4.45;;;;;;;;;;5088359;28;20490;-84
2021/03/16 10:00:03;;;;;;;21.10;5.28;;;;;;;;;;5089808;28;20101;-83
2021/03/16 10:02:42;;;;;;;23.23;4.95;;;;;;;;;;5091249;28;20078;-83
2021/03/16 10:05:20;;;;;;;25.08;4.50;;;;;;;;;;5091928;28;20052;-84
2021/03/16 10:07:51;;;;;;;18.30;3.28;;;;;;;;;;5111952;28;20101;-84
2021/03/16 10:10:27;;;;;;;14.60;3.00;;;;;;;;;;5114245;27;20279;-83
2021/03/16 10:12:54;;;;;;;11.95;2.33;;;;;;;;;;5111115;28;20059;-84
2021/03/16 10:15:57;;;;;;;16.10;2.78;;;;;;;;;;5112271;28;20051;-83
2021/03/16 10:18:29;;;;;;;14.05;2.38;;;;;;;;;;5035405;28;20310;-84
2021/03/16 10:20:55;;;;;;;16.85;3.28;;;;;;;;;;5110611;28;20055;-82
2021/03/16 10:23:30;;;;;;;14.00;3.00;;;;;;;;;;5110337;28;20035;-83
2021/03/16 10:26:04;;;;;;;17.30;3.00;;;;;;;;;;5110544;28;20142;-83
2021/03/16 10:28:42;;;;;;;17.98;3.38;;;;;;;;;;5103354;28;20252;-83
2021/03/16 10:31:32;;;;;;;14.88;3.13;;;;;;;;;;5119576;27;20042;-83
2021/03/16 10:34:02;;;;;;;12.85;2.95;;;;;;;;;;5087977;28;20124;-84
2021/03/16 10:36:34;;;;;;;11.02;2.78;;;;;;;;;;5086739;28;20044;-83
2021/03/16 10:39:03;;;;;;;17.02;2.60;;;;;;;;;;5086521;28;20364;-83
2021/03/16 10:41:30;;;;;;;10.93;2.28;;;;;;;;;;5083537;28;20054;-83
2021/03/16 10:44:00;;;;;;;16.85;3.78;;;;;;;;;;5102096;28;20040;-83
2021/03/16 10:46:30;;;;;;;10.65;2.10;;;;;;;;;;5108458;28;20050;-83
2021/03/16 10:48:56;;;;;;;16.40;2.58;;;;;;;;;;5104781;28;20200;-83
2021/03/16 10:51:25;;;;;;;14.52;2.95;;;;;;;;;;5105512;28;20502;-84
2021/03/16 10:53:51;;;;;;;18.40;3.13;;;;;;;;;;5113115;28;20052;-84
2021/03/16 10:56:18;;;;;;;11.45;2.30;;;;;;;;;;5091237;28;20104;-83
2021/03/16 10:58:44;;;;;;;14.23;2.75;;;;;;;;;;5092907;28;20055;-84
2021/03/16 11:01:13;;;;;;;10.82;2.25;;;;;;;;;;5107891;27;20115;-84
2021/03/16 11:03:42;;;;;;;13.32;2.35;;;;;;;;;;5133821;27;20368;-83
2021/03/16 11:06:12;;;;;;;18.20;2.63;;;;;;;;;;5135660;27;20039;-85
2021/03/16 11:08:41;;;;;;;16.52;2.45;;;;;;;;;;5136766;27;20324;-84
2021/03/16 11:11:10;;;;;;;15.85;2.80;;;;;;;;;;5126414;27;20191;-85
2021/03/16 11:13:39;;;;;;;8.07;2.10;;;;;;;;;;5114050;27;20220;-83
2021/03/16 11:16:09;;;;;;;15.52;2.22;;;;;;;;;;5124877;28;20091;-84
2021/03/16 11:18:35;;;;;;;15.23;2.50;;;;;;;;;;5128646;28;20062;-83
2021/03/16 11:21:05;;;;;;;13.50;2.20;;;;;;;;;;5122311;28;20058;-84
2021/03/16 11:23:31;;;;;;;17.17;3.13;;;;;;;;;;5117526;28;20078;-85
2021/03/16 11:26:00;;;;;;;14.15;2.90;;;;;;;;;;5113315;28;20235;-85
2021/03/16 11:28:29;;;;;;;12.93;2.63;;;;;;;;;;5122165;28;20058;-85
2021/03/16 11:30:55;;;;;;;20.38;2.75;;;;;;;;;;5128396;28;20107;-85
2021/03/16 11:33:22;;;;;;;19.40;3.22;;;;;;;;;;5119922;28;20050;-84
2021/03/16 11:35:52;;;;;;;17.83;2.53;;;;;;;;;;5114402;27;20079;-83
2021/03/16 11:38:18;;;;;;;14.48;2.38;;;;;;;;;;5110767;28;20092;-83
2021/03/16 11:40:44;;;;;;;13.85;2.30;;;;;;;;;;5113184;27;20419;-84
2021/03/16 11:43:11;;;;;;;10.65;2.47;;;;;;;;;;5111558;28;20159;-83
2021/03/16 11:45:39;;;;;;;13.27;1.80;;;;;;;;;;5119453;28;20047;-86
2021/03/16 11:48:10;;;;;;;12.23;2.22;;;;;;;;;;5120588;28;20062;-83
2021/03/16 11:50:42;;;;;;;14.40;3.10;;;;;;;;;;5110038;28;20090;-83
2021/03/16 11:53:12;;;;;;;17.92;3.17;;;;;;;;;;5097650;28;20048;-83
2021/03/16 11:55:42;;;;;;;16.15;2.25;;;;;;;;;;5103575;28;20216;-84
2021/03/16 11:58:11;;;;;;;9.57;1.92;;;;;;;;;;5100096;28;20043;-84
2021/03/16 12:00:37;;;;;;;9.23;1.88;;;;;;;;;;5091302;28;20048;-84
2021/03/16 12:03:04;;;;;;;10.93;1.77;;;;;;;;;;5104306;28;20039;-84
2021/03/16 12:05:36;;;;;;;13.93;1.88;;;;;;;;;;5111395;28;20104;-85
2021/03/16 12:08:04;;;;;;;12.25;2.17;;;;;;;;;;5110502;28;20043;-84
2021/03/16 12:10:30;;;;;;;9.60;2.00;;;;;;;;;;5113410;28;20365;-84
2021/03/16 12:12:58;;;;;;;10.10;1.70;;;;;;;;;;5108615;27;20237;-84
2021/03/16 12:15:24;;;;;;;12.93;1.88;;;;;;;;;;5104031;27;20506;-84
2021/03/16 12:17:55;;;;;;;12.35;1.77;;;;;;;;;;5140468;27;20253;-84
2021/03/16 12:20:22;;;;;;;12.40;2.38;;;;;;;;;;5111024;28;20315;-84
2021/03/16 12:22:48;;;;;;;15.85;2.10;;;;;;;;;;5110481;28;20225;-85
2021/03/16 12:25:14;;;;;;;11.98;2.50;;;;;;;;;;5109571;28;20214;-84
2021/03/16 12:27:40;;;;;;;15.82;2.78;;;;;;;;;;5111146;28;20133;-83
2021/03/16 12:30:11;;;;;;;12.32;3.08;;;;;;;;;;5114717;28;20059;-84
2021/03/16 12:32:40;;;;;;;7.28;2.15;;;;;;;;;;5101360;28;20147;-84
2021/03/16 12:35:10;;;;;;;16.63;2.28;;;;;;;;;;5094427;28;20047;-85
2021/03/16 12:37:36;;;;;;;10.68;3.05;;;;;;;;;;5092894;28;20350;-83
2021/03/16 12:40:08;;;;;;;8.20;1.85;;;;;;;;;;5099860;28;20051;-86
2021/03/16 12:42:37;;;;;;;12.18;1.80;;;;;;;;;;5119449;28;20244;-84
2021/03/16 12:45:13;;;;;;;7.15;1.80;;;;;;;;;;5122476;28;20086;-84
2021/03/16 12:47:42;;;;;;;10.18;2.35;;;;;;;;;;5122161;28;20230;-83
2021/03/16 12:50:09;;;;;;;11.48;2.63;;;;;;;;;;5110619;28;20504;-83
2021/03/16 12:52:35;;;;;;;8.27;2.35;;;;;;;;;;5110185;28;20311;-83
2021/03/16 12:55:01;;;;;;;13.05;2.28;;;;;;;;;;5111244;28;20101;-84
2021/03/16 12:57:27;;;;;;;9.43;2.47;;;;;;;;;;5109450;28;20051;-83
2021/03/16 12:59:53;;;;;;;13.73;2.38;;;;;;;;;;5107331;28;20055;-84
2021/03/16 13:02:20;;;;;;;11.07;2.08;;;;;;;;;;5102538;28;20043;-84
2021/03/16 13:04:57;;;;;;;16.40;2.42;;;;;;;;;;5087528;28;20263;-84
2021/03/16 13:07:28;;;;;;;9.23;2.15;;;;;;;;;;5109404;27;20523;-82
2021/03/16 13:09:54;;;;;;;8.85;2.05;;;;;;;;;;5108363;28;20261;-82
2021/03/16 13:12:20;;;;;;;14.15;2.58;;;;;;;;;;5108802;28;20119;-83
2021/03/16 13:14:47;;;;;;;14.98;4.50;;;;;;;;;;5107030;28;20056;-84
2021/03/16 13:17:15;;;;;;;9.02;1.92;;;;;;;;;;5107784;28;20055;-82
2021/03/16 13:19:42;;;;;;;14.32;3.92;;;;;;;;;;5106470;28;20406;-83
2021/03/16 13:22:08;;;;;;;15.68;3.92;;;;;;;;;;5106976;28;20431;-84
2021/03/16 13:24:34;;;;;;;13.57;3.08;;;;;;;;;;5109009;28;20128;-83
2021/03/16 13:27:00;;;;;;;11.32;1.75;;;;;;;;;;5108375;28;20396;-84
2021/03/16 13:29:31;;;;;;;7.22;2.38;;;;;;;;;;5108136;28;20412;-84
2021/03/16 13:32:00;;;;;;;18.98;3.65;;;;;;;;;;5108903;28;20063;-83
2021/03/16 13:34:30;;;;;;;14.60;3.58;;;;;;;;;;5107422;28;20058;-83
2021/03/16 13:36:56;;;;;;;13.80;2.53;;;;;;;;;;5107978;28;20043;-83
2021/03/16 13:39:34;;;;;;;9.82;2.03;;;;;;;;;;5111568;28;20081;-83
2021/03/16 13:42:03;;;;;;;9.88;1.77;;;;;;;;;;5113049;28;20403;-83
2021/03/16 13:44:29;;;;;;;10.23;1.40;;;;;;;;;;5110632;28;20160;-83
2021/03/16 13:46:58;;;;;;;10.50;2.00;;;;;;;;;;5109808;28;20051;-84
2021/03/16 13:49:34;;;;;;;9.25;2.03;;;;;;;;;;5100009;28;20039;-84
2021/03/16 13:52:00;;;;;;;6.47;1.30;;;;;;;;;;5104185;28;20075;-84
2021/03/16 13:54:29;;;;;;;9.05;1.88;;;;;;;;;;5103146;28;20044;-82
2021/03/16 13:56:55;;;;;;;7.68;1.60;;;;;;;;;;5102123;28;20048;-82
2021/03/16 13:59:34;;;;;;;6.82;1.70;;;;;;;;;;5098411;28;20062;-83
2021/03/16 14:02:00;;;;;;;10.48;2.45;;;;;;;;;;5110189;28;20067;-82
2021/03/16 14:04:27;;;;;;;15.95;2.60;;;;;;;;;;5102933;28;20211;-82